createdAt,value
2022-10-09T00:00:51.017Z,44.42
2022-10-09T00:03:17.680Z,44.35
2022-10-09T00:05:44.678Z,44.38
2022-10-09T00:08:11.036Z,44.31
2022-10-09T00:10:40.214Z,44.31
2022-10-09T00:13:07.817Z,44.18
2022-10-09T00:15:37.088Z,44.18
2022-10-09T00:18:03.514Z,44.05
2022-10-09T00:20:29.831Z,44.04
2022-10-09T00:22:56.182Z,43.99
2022-10-09T00:25:22.502Z,43.84
2022-10-09T00:27:48.877Z,43.44
2022-10-09T00:30:16.607Z,43.56
2022-10-09T00:32:42.956Z,43.67
2022-10-09T00:35:09.503Z,43.47
2022-10-09T00:37:35.980Z,43.37
2022-10-09T00:40:03.442Z,43.51
2022-10-09T00:42:32.840Z,43.52
2022-10-09T00:45:00.586Z,43.38
2022-10-09T00:47:31.374Z,43.46
2022-10-09T00:49:59.938Z,43.27
2022-10-09T00:52:26.598Z,43.25
2022-10-09T00:54:53.587Z,43.53
2022-10-09T00:57:20.257Z,43.49
2022-10-09T00:59:46.712Z,43.59
2022-10-09T01:02:13.412Z,43.53
2022-10-09T01:04:41.148Z,43.59
2022-10-09T01:07:12.814Z,43.52
2022-10-09T01:09:42.038Z,43.70
2022-10-09T01:12:12.585Z,43.66
2022-10-09T01:14:43.532Z,43.68
2022-10-09T01:17:12.791Z,43.85
2022-10-09T01:19:56.736Z,43.81
2022-10-09T01:22:31.951Z,43.79
2022-10-09T01:25:01.362Z,43.77
2022-10-09T01:27:29.407Z,43.87
2022-10-09T01:29:56.861Z,43.80
2022-10-09T01:32:25.050Z,43.81
2022-10-09T01:34:52.551Z,43.79
2022-10-09T01:37:20.216Z,43.83
2022-10-09T01:39:46.789Z,43.60
2022-10-09T01:42:14.022Z,43.83
2022-10-09T01:44:41.744Z,43.69
2022-10-09T01:47:10.280Z,43.61
2022-10-09T01:49:40.050Z,43.63
2022-10-09T01:52:12.054Z,43.67
2022-10-09T01:54:42.115Z,43.47
2022-10-09T01:57:10.133Z,43.42
2022-10-09T01:59:39.457Z,43.53
2022-10-09T02:02:07.768Z,43.44
2022-10-09T02:04:35.346Z,43.39
2022-10-09T02:07:01.871Z,43.48
2022-10-09T02:09:28.724Z,43.42
2022-10-09T02:11:57.077Z,43.37
2022-10-09T02:14:23.576Z,43.40
2022-10-09T02:16:53.003Z,43.51
2022-10-09T02:19:23.046Z,43.27
2022-10-09T02:21:54.584Z,43.27
2022-10-09T02:24:22.399Z,43.16
2022-10-09T02:26:49.619Z,43.22
2022-10-09T02:29:16.746Z,43.07
2022-10-09T02:31:43.861Z,43.19
2022-10-09T02:34:12.076Z,43.14
2022-10-09T02:36:40.009Z,43.08
2022-10-09T02:39:06.947Z,43.09
2022-10-09T02:41:33.742Z,43.18
2022-10-09T02:44:00.168Z,42.91
2022-10-09T02:46:26.762Z,42.99
2022-10-09T02:48:53.315Z,43.04
2022-10-09T02:51:19.727Z,42.92
2022-10-09T02:53:47.481Z,43.19
2022-10-09T02:56:13.948Z,43.02
2022-10-09T02:58:40.532Z,43.06
2022-10-09T03:01:06.960Z,43.01
2022-10-09T03:03:33.323Z,42.99
2022-10-09T03:05:59.936Z,43.08
2022-10-09T03:08:26.362Z,43.03
2022-10-09T03:10:54.058Z,43.04
2022-10-09T03:13:20.354Z,43.08
2022-10-09T03:15:46.882Z,43.21
2022-10-09T03:18:13.339Z,43.24
2022-10-09T03:20:39.900Z,43.37
2022-10-09T03:23:06.417Z,43.37
2022-10-09T03:25:32.855Z,43.46
2022-10-09T03:28:00.635Z,43.45
2022-10-09T03:30:27.018Z,43.47
2022-10-09T03:32:53.347Z,43.53
2022-10-09T03:35:19.789Z,43.61
2022-10-09T03:37:46.163Z,43.59
2022-10-09T03:40:12.563Z,43.58
2022-10-09T03:42:38.886Z,43.66
2022-10-09T03:45:06.942Z,43.75
2022-10-09T03:47:33.376Z,43.75
2022-10-09T03:49:59.880Z,43.78
2022-10-09T03:52:26.240Z,43.71
2022-10-09T03:54:52.632Z,43.64
2022-10-09T03:57:18.952Z,43.70
2022-10-09T03:59:45.276Z,43.65
2022-10-09T04:02:13.060Z,43.78
2022-10-09T04:04:39.555Z,43.60
2022-10-09T04:07:05.922Z,43.67
2022-10-09T04:09:32.348Z,43.60
2022-10-09T04:11:58.862Z,43.77
2022-10-09T04:14:25.203Z,43.77
2022-10-09T04:16:51.538Z,43.76
2022-10-09T04:19:19.275Z,43.62
2022-10-09T04:21:45.635Z,43.79
2022-10-09T04:24:12.045Z,43.70
2022-10-09T04:26:38.561Z,43.57
2022-10-09T04:29:05.092Z,43.73
2022-10-09T04:31:31.474Z,43.61
2022-10-09T04:33:57.854Z,43.54
2022-10-09T04:36:25.553Z,43.55
2022-10-09T04:38:51.855Z,43.64
2022-10-09T04:41:18.621Z,43.68
2022-10-09T04:43:45.368Z,43.69
2022-10-09T04:46:14.278Z,43.62
2022-10-09T04:48:41.622Z,43.61
2022-10-09T04:51:08.514Z,43.65
2022-10-09T04:53:36.882Z,43.48
2022-10-09T04:56:04.386Z,43.56
2022-10-09T04:58:30.897Z,43.48
2022-10-09T05:00:57.585Z,43.48
2022-10-09T05:03:24.088Z,43.44
2022-10-09T05:05:50.481Z,43.68
2022-10-09T05:08:16.807Z,43.63
2022-10-09T05:10:44.458Z,43.58
2022-10-09T05:13:10.794Z,43.46
2022-10-09T05:15:37.646Z,43.56
2022-10-09T05:18:05.030Z,43.43
2022-10-09T05:20:31.415Z,43.37
2022-10-09T05:22:57.856Z,43.42
2022-10-09T05:25:24.188Z,43.43
2022-10-09T05:27:51.852Z,43.46
2022-10-09T05:30:18.298Z,43.27
2022-10-09T05:32:44.646Z,43.55
2022-10-09T05:35:11.024Z,43.31
2022-10-09T05:37:37.373Z,43.46
2022-10-09T05:40:03.850Z,43.42
2022-10-09T05:42:30.191Z,43.34
2022-10-09T05:44:57.834Z,43.31
2022-10-09T05:47:24.245Z,43.20
2022-10-09T05:49:50.569Z,43.25
2022-10-09T05:52:16.889Z,43.13
2022-10-09T05:54:43.318Z,43.17
2022-10-09T05:57:09.650Z,43.15
2022-10-09T05:59:35.992Z,43.34
2022-10-09T06:02:04.051Z,43.29
2022-10-09T06:04:30.581Z,43.15
2022-10-09T06:06:56.913Z,43.12
2022-10-09T06:09:24.419Z,43.08
2022-10-09T06:11:51.230Z,43.12
2022-10-09T06:14:17.867Z,42.98
2022-10-09T06:16:44.879Z,42.97
2022-10-09T06:19:14.103Z,43.01
2022-10-09T06:21:40.654Z,43.02
2022-10-09T06:24:07.378Z,43.15
2022-10-09T06:26:34.318Z,43.04
2022-10-09T06:29:01.061Z,42.95
2022-10-09T06:31:28.528Z,43.02
2022-10-09T06:33:55.182Z,42.85
2022-10-09T06:36:24.038Z,42.78
2022-10-09T06:38:50.762Z,42.55
2022-10-09T06:41:18.116Z,42.64
2022-10-09T06:43:48.470Z,42.49
2022-10-09T06:46:14.850Z,42.47
2022-10-09T06:48:41.250Z,42.34
2022-10-09T06:51:08.729Z,42.48
2022-10-09T06:53:37.021Z,42.48
2022-10-09T06:56:03.450Z,42.49
2022-10-09T06:58:29.891Z,42.47
2022-10-09T07:01:04.069Z,42.38
2022-10-09T07:03:30.520Z,42.25
2022-10-09T07:06:05.100Z,42.23
2022-10-09T07:08:31.999Z,42.60
2022-10-09T07:10:59.621Z,42.29
2022-10-09T07:13:26.013Z,42.31
2022-10-09T07:15:52.397Z,42.18
2022-10-09T07:18:18.759Z,42.51
2022-10-09T07:20:45.109Z,42.26
2022-10-09T07:23:11.605Z,42.46
2022-10-09T07:25:38.093Z,42.37
2022-10-09T07:28:05.779Z,42.58
2022-10-09T07:30:32.242Z,42.42
2022-10-09T07:32:58.577Z,42.58
2022-10-09T07:35:24.899Z,42.48
2022-10-09T07:37:51.472Z,42.48
2022-10-09T07:40:17.778Z,42.51
2022-10-09T07:42:44.147Z,42.60
2022-10-09T07:45:11.982Z,42.68
2022-10-09T07:47:38.311Z,42.71
2022-10-09T07:50:04.925Z,42.71
2022-10-09T07:52:31.284Z,42.73
2022-10-09T07:54:57.756Z,42.79
2022-10-09T07:57:24.076Z,42.76
2022-10-09T07:59:50.401Z,42.84
2022-10-09T08:02:18.185Z,42.77
2022-10-09T08:04:44.544Z,42.94
2022-10-09T08:07:10.926Z,42.99
2022-10-09T08:09:37.406Z,43.04
2022-10-09T08:12:03.940Z,43.13
2022-10-09T08:14:30.335Z,43.23
2022-10-09T08:16:56.807Z,43.06
2022-10-09T08:19:24.423Z,43.19
2022-10-09T08:21:50.947Z,43.30
2022-10-09T08:24:17.282Z,43.21
2022-10-09T08:26:43.907Z,43.43
2022-10-09T08:29:10.911Z,43.45
2022-10-09T08:31:37.367Z,43.44
2022-10-09T08:34:03.874Z,43.56
2022-10-09T08:36:32.095Z,43.76
2022-10-09T08:38:58.441Z,43.76
2022-10-09T08:41:29.071Z,43.75
2022-10-09T08:44:00.716Z,43.76
2022-10-09T08:46:31.258Z,44.01
2022-10-09T08:48:59.715Z,43.88
2022-10-09T08:51:27.771Z,43.96
2022-10-09T08:53:58.576Z,43.97
2022-10-09T08:56:25.330Z,43.95
2022-10-09T08:58:51.941Z,44.01
2022-10-09T09:01:22.564Z,44.09
2022-10-09T09:03:56.415Z,44.30
2022-10-09T09:06:26.886Z,44.34
2022-10-09T09:08:55.499Z,44.31
2022-10-09T09:11:27.383Z,44.27
2022-10-09T09:14:00.671Z,44.33
2022-10-09T09:16:31.285Z,44.40
2022-10-09T09:19:07.448Z,44.40
2022-10-09T09:21:37.650Z,44.44
2022-10-09T09:24:11.038Z,44.47
2022-10-09T09:26:40.283Z,44.46
2022-10-09T09:29:06.784Z,44.37
2022-10-09T09:31:36.195Z,44.61
2022-10-09T09:34:05.556Z,44.73
2022-10-09T09:36:35.224Z,44.63
2022-10-09T09:41:49.215Z,44.72
2022-10-09T09:44:16.993Z,44.57
2022-10-09T09:46:45.494Z,44.56
2022-10-09T09:49:16.094Z,44.54
2022-10-09T09:51:42.490Z,44.60
2022-10-09T09:54:15.282Z,44.61
2022-10-09T09:59:33.599Z,44.78
2022-10-09T10:02:00.775Z,44.82
2022-10-09T10:04:27.423Z,44.62
2022-10-09T10:06:54.171Z,44.52
2022-10-09T10:09:20.873Z,44.28
2022-10-09T10:11:48.151Z,44.27
2022-10-09T10:14:15.723Z,44.19
2022-10-09T10:16:43.884Z,44.27
2022-10-09T10:19:20.244Z,44.22
2022-10-09T10:21:47.248Z,44.32
2022-10-09T10:24:18.550Z,44.65
2022-10-09T10:26:48.032Z,44.38
2022-10-09T10:29:17.119Z,44.42
2022-10-09T10:31:50.706Z,44.31
2022-10-09T10:34:20.715Z,44.35
2022-10-09T10:36:48.226Z,44.28
2022-10-09T10:39:26.788Z,44.33
2022-10-09T10:41:55.591Z,44.26
2022-10-09T10:44:25.831Z,44.36
2022-10-09T10:46:55.986Z,44.26
2022-10-09T10:49:22.902Z,44.55
2022-10-09T10:51:58.867Z,44.41
2022-10-09T10:54:36.210Z,44.56
2022-10-09T10:57:07.710Z,44.29
2022-10-09T10:59:37.627Z,44.25
2022-10-09T11:02:18.902Z,44.30
2022-10-09T11:04:52.102Z,44.41
2022-10-09T11:07:25.192Z,44.30
2022-10-09T11:09:54.543Z,44.35
2022-10-09T11:12:46.905Z,44.43
2022-10-09T11:15:18.377Z,44.54
2022-10-09T11:17:49.204Z,44.41
2022-10-09T11:20:38.169Z,44.45
2022-10-09T11:23:08.471Z,44.42
2022-10-09T11:25:40.870Z,44.34
2022-10-09T11:28:11.371Z,44.45
2022-10-09T11:30:39.730Z,44.36
2022-10-09T11:33:11.732Z,44.42
2022-10-09T11:35:42.726Z,44.66
2022-10-09T11:38:25.580Z,44.68
2022-10-09T11:40:52.511Z,44.61
2022-10-09T11:43:35.369Z,44.71
2022-10-09T11:46:04.083Z,44.63
2022-10-09T11:48:34.365Z,44.58
2022-10-09T11:51:05.719Z,44.60
2022-10-09T11:53:32.411Z,44.69
2022-10-09T11:56:02.720Z,44.70
2022-10-09T11:58:29.092Z,44.75
2022-10-09T12:00:56.488Z,44.87
2022-10-09T12:03:24.584Z,44.64
2022-10-09T12:05:51.067Z,44.62
2022-10-09T12:08:25.449Z,44.62
2022-10-09T12:10:53.709Z,44.84
2022-10-09T12:13:29.689Z,44.57
2022-10-09T12:15:57.272Z,45.01
2022-10-09T12:18:25.035Z,44.95
2022-10-09T12:20:53.073Z,44.92
2022-10-09T12:23:27.875Z,44.90
2022-10-09T12:25:55.709Z,44.87
2022-10-09T12:28:25.437Z,44.98
2022-10-09T12:30:51.973Z,45.20
2022-10-09T12:33:22.551Z,45.10
2022-10-09T12:35:58.374Z,45.17
2022-10-09T12:38:27.305Z,45.18
2022-10-09T12:40:55.467Z,45.02
2022-10-09T12:43:23.412Z,45.09
2022-10-09T12:45:50.601Z,45.12
2022-10-09T12:48:19.502Z,45.06
2022-10-09T12:50:45.830Z,45.03
2022-10-09T12:53:12.952Z,45.11
2022-10-09T12:55:43.545Z,45.33
2022-10-09T12:58:15.233Z,45.24
2022-10-09T13:00:42.428Z,45.21
2022-10-09T13:03:21.358Z,45.10
2022-10-09T13:05:47.817Z,45.13
2022-10-09T13:08:21.164Z,45.10
2022-10-09T13:10:48.985Z,45.21
2022-10-09T13:13:18.477Z,45.14
2022-10-09T13:15:44.839Z,45.19
2022-10-09T13:18:20.100Z,45.23
2022-10-09T13:20:46.473Z,45.33
2022-10-09T13:23:26.039Z,45.22
2022-10-09T13:25:53.752Z,45.39
2022-10-09T13:28:20.808Z,45.46
2022-10-09T13:30:47.592Z,45.28
2022-10-09T13:33:14.271Z,45.37
2022-10-09T13:35:40.638Z,45.44
2022-10-09T13:38:07.361Z,45.41
2022-10-09T13:40:33.932Z,45.54
2022-10-09T13:43:02.490Z,45.49
2022-10-09T13:45:28.861Z,45.66
2022-10-09T13:47:55.186Z,45.44
2022-10-09T13:50:21.505Z,45.56
2022-10-09T13:52:47.845Z,45.75
2022-10-09T13:55:14.413Z,45.59
2022-10-09T13:57:40.879Z,46.03
2022-10-09T14:00:09.144Z,45.94
2022-10-09T14:02:35.591Z,45.60
2022-10-09T14:05:02.029Z,45.84
2022-10-09T14:07:28.386Z,45.76
2022-10-09T14:09:54.708Z,45.69
2022-10-09T14:12:21.138Z,45.64
2022-10-09T14:14:47.579Z,45.83
2022-10-09T14:17:15.149Z,46.15
2022-10-09T14:19:41.496Z,45.90
2022-10-09T14:22:07.814Z,45.90
2022-10-09T14:24:34.126Z,45.93
2022-10-09T14:27:00.494Z,46.03
2022-10-09T14:29:26.841Z,45.77
2022-10-09T14:31:53.170Z,45.97
2022-10-09T14:34:20.788Z,46.11
2022-10-09T14:36:47.121Z,45.85
2022-10-09T14:39:13.599Z,45.96
2022-10-09T14:41:39.941Z,45.97
2022-10-09T14:44:06.397Z,46.09
2022-10-09T14:46:33.208Z,45.96
2022-10-09T14:48:59.867Z,45.92
2022-10-09T14:51:27.560Z,46.27
2022-10-09T14:53:55.800Z,46.29
2022-10-09T14:56:22.146Z,46.02
2022-10-09T14:58:48.515Z,46.14
2022-10-09T15:01:16.807Z,46.09
2022-10-09T15:03:43.602Z,46.09
2022-10-09T15:06:10.896Z,46.13
2022-10-09T15:08:39.461Z,46.27
2022-10-09T15:11:06.354Z,46.49
2022-10-09T15:13:33.530Z,46.37
2022-10-09T15:16:00.271Z,46.46
2022-10-09T15:18:26.746Z,46.38
2022-10-09T15:20:53.098Z,46.49
2022-10-09T15:23:19.519Z,46.30
2022-10-09T15:25:48.984Z,46.26
2022-10-09T15:28:15.301Z,46.36
2022-10-09T15:30:43.615Z,46.55
2022-10-09T15:33:09.944Z,46.23
2022-10-09T15:35:36.299Z,46.43
2022-10-09T15:38:02.672Z,46.51
2022-10-09T15:40:29.056Z,46.13
2022-10-09T15:42:56.715Z,46.45
2022-10-09T15:45:23.053Z,46.35
2022-10-09T15:47:51.710Z,46.50
2022-10-09T15:50:18.247Z,46.43
2022-10-09T15:52:44.581Z,46.33
2022-10-09T15:55:10.936Z,46.48
2022-10-09T15:57:37.280Z,46.30
2022-10-09T16:00:05.394Z,46.41
2022-10-09T16:02:31.741Z,46.57
2022-10-09T16:04:58.133Z,46.63
2022-10-09T16:07:24.554Z,46.49
2022-10-09T16:09:51.331Z,46.41
2022-10-09T16:12:17.832Z,46.51
2022-10-09T16:14:44.174Z,46.47
2022-10-09T16:17:11.780Z,46.23
2022-10-09T16:19:38.253Z,46.64
2022-10-09T16:22:05.360Z,46.56
2022-10-09T16:24:31.892Z,46.29
2022-10-09T16:26:58.238Z,46.48
2022-10-09T16:29:24.593Z,46.41
2022-10-09T16:31:51.004Z,46.36
2022-10-09T16:34:18.635Z,46.38
2022-10-09T16:36:44.959Z,46.68
2022-10-09T16:39:11.316Z,46.57
2022-10-09T16:41:41.773Z,46.72
2022-10-09T16:44:11.743Z,46.49
2022-10-09T16:46:38.153Z,46.56
2022-10-09T16:49:04.852Z,46.41
2022-10-09T16:51:34.375Z,46.38
2022-10-09T16:54:02.076Z,46.81
2022-10-09T16:56:30.189Z,46.73
2022-10-09T16:58:57.733Z,46.61
2022-10-09T17:01:24.660Z,46.53
2022-10-09T17:03:53.138Z,46.47
2022-10-09T17:06:19.614Z,46.60
2022-10-09T17:08:47.368Z,46.77
2022-10-09T17:11:14.790Z,46.92
2022-10-09T17:13:41.146Z,46.84
2022-10-09T17:16:08.589Z,46.73
2022-10-09T17:18:35.365Z,46.76
2022-10-09T17:21:02.334Z,46.71
2022-10-09T17:23:28.779Z,46.56
2022-10-09T17:25:56.510Z,46.62
2022-10-09T17:28:22.931Z,46.56
2022-10-09T17:30:49.334Z,46.96
2022-10-09T17:33:19.655Z,46.89
2022-10-09T17:35:46.385Z,46.83
2022-10-09T17:38:12.811Z,46.74
2022-10-09T17:40:39.642Z,46.88
2022-10-09T17:43:08.487Z,46.71
2022-10-09T17:45:39.289Z,46.90
2022-10-09T17:48:06.377Z,47.04
2022-10-09T17:50:32.757Z,46.83
2022-10-09T17:52:59.195Z,46.91
2022-10-09T17:55:25.711Z,46.75
2022-10-09T17:57:52.857Z,46.84
2022-10-09T18:00:21.936Z,46.75
2022-10-09T18:02:48.763Z,46.90
2022-10-09T18:05:15.231Z,46.84
2022-10-09T18:07:41.560Z,46.95
2022-10-09T18:10:08.117Z,46.89
2022-10-09T18:12:34.509Z,47.15
2022-10-09T18:15:00.868Z,47.09
2022-10-09T18:17:28.455Z,46.90
2022-10-09T18:19:54.825Z,46.84
2022-10-09T18:22:21.204Z,46.80
2022-10-09T18:24:47.513Z,46.91
2022-10-09T18:27:13.990Z,46.96
2022-10-09T18:29:40.430Z,46.95
2022-10-09T18:32:06.737Z,47.04
2022-10-09T18:34:38.910Z,46.92
2022-10-09T18:37:06.179Z,46.89
2022-10-09T18:39:32.517Z,46.95
2022-10-09T18:41:58.835Z,46.98
2022-10-09T18:44:25.165Z,46.78
2022-10-09T18:46:53.846Z,46.95
2022-10-09T18:49:22.689Z,46.92
2022-10-09T18:51:50.664Z,47.05
2022-10-09T18:54:18.455Z,47.02
2022-10-09T18:56:45.081Z,47.02
2022-10-09T18:59:12.867Z,47.01
2022-10-09T19:01:39.466Z,46.74
2022-10-09T19:04:05.948Z,46.91
2022-10-09T19:06:32.339Z,46.77
2022-10-09T19:08:59.977Z,46.97
2022-10-09T19:11:26.460Z,47.18
2022-10-09T19:13:52.800Z,47.06
2022-10-09T19:16:19.109Z,47.00
2022-10-09T19:18:45.486Z,46.95
2022-10-09T19:21:12.177Z,46.87
2022-10-09T19:23:38.498Z,47.04
2022-10-09T19:26:06.251Z,46.97
2022-10-09T19:28:32.703Z,46.94
2022-10-09T19:30:59.842Z,47.13
2022-10-09T19:33:26.388Z,47.04
2022-10-09T19:35:53.818Z,46.87
2022-10-09T19:38:20.618Z,46.91
2022-10-09T19:40:47.108Z,46.91
2022-10-09T19:43:15.599Z,46.90
2022-10-09T19:45:41.961Z,46.96
2022-10-09T19:48:08.454Z,46.90
2022-10-09T19:50:39.476Z,47.21
2022-10-09T19:53:05.861Z,47.19
2022-10-09T19:55:32.470Z,47.23
2022-10-09T19:57:58.850Z,47.24
2022-10-09T20:00:26.649Z,46.94
2022-10-09T20:02:53.360Z,47.11
2022-10-09T20:05:20.025Z,47.13
2022-10-09T20:07:46.370Z,46.97
2022-10-09T20:10:12.795Z,47.00
2022-10-09T20:12:39.136Z,47.22
2022-10-09T20:15:05.865Z,47.14
2022-10-09T20:17:33.593Z,47.22
2022-10-09T20:19:59.909Z,47.25
2022-10-09T20:22:26.270Z,47.08
2022-10-09T20:24:52.654Z,47.03
2022-10-09T20:27:19.004Z,47.30
2022-10-09T20:29:45.314Z,47.09
2022-10-09T20:32:11.693Z,47.14
2022-10-09T20:34:39.459Z,47.32
2022-10-09T20:37:05.920Z,47.31
2022-10-09T20:39:32.240Z,47.27
2022-10-09T20:41:58.584Z,47.13
2022-10-09T20:44:24.888Z,47.22
2022-10-09T20:46:51.234Z,47.21
2022-10-09T20:49:17.607Z,47.15
2022-10-09T20:51:45.230Z,47.19
2022-10-09T20:54:15.871Z,47.18
2022-10-09T20:56:42.226Z,47.21
2022-10-09T20:59:08.551Z,47.13
2022-10-09T21:01:34.959Z,47.25
2022-10-09T21:04:01.355Z,47.13
2022-10-09T21:06:27.818Z,47.21
2022-10-09T21:08:56.229Z,47.08
2022-10-09T21:11:22.834Z,47.15
2022-10-09T21:13:49.783Z,47.18
2022-10-09T21:16:17.277Z,47.28
2022-10-09T21:18:43.752Z,47.28
2022-10-09T21:21:11.773Z,47.17
2022-10-09T21:23:38.297Z,47.13
2022-10-09T21:26:10.134Z,47.26
2022-10-09T21:28:36.600Z,47.17
2022-10-09T21:31:07.081Z,47.10
2022-10-09T21:33:33.593Z,47.03
2022-10-09T21:36:00.024Z,46.98
2022-10-09T21:38:26.608Z,47.12
2022-10-09T21:40:53.026Z,47.15
2022-10-09T21:43:20.717Z,47.25
2022-10-09T21:45:49.137Z,47.07
2022-10-09T21:48:15.807Z,47.03
2022-10-09T21:50:42.298Z,47.08
2022-10-09T21:53:08.814Z,47.06
2022-10-09T21:55:36.578Z,47.07
2022-10-09T21:58:02.917Z,46.99
2022-10-09T22:00:30.577Z,47.11
2022-10-09T22:02:56.906Z,47.29
2022-10-09T22:05:23.294Z,47.20
2022-10-09T22:07:49.653Z,47.21
2022-10-09T22:10:16.105Z,47.07
2022-10-09T22:12:42.625Z,47.13
2022-10-09T22:15:09.470Z,47.08
2022-10-09T22:17:37.118Z,47.05
2022-10-09T22:20:03.826Z,47.06
2022-10-09T22:22:30.200Z,47.15
2022-10-09T22:24:56.594Z,47.25
2022-10-09T22:27:23.001Z,47.27
2022-10-09T22:29:49.423Z,47.20
2022-10-09T22:32:15.766Z,46.87
2022-10-09T22:34:43.436Z,47.12
2022-10-09T22:37:09.945Z,47.16
2022-10-09T22:39:36.270Z,47.13
2022-10-09T22:42:03.224Z,47.11
2022-10-09T22:44:29.723Z,47.18
2022-10-09T22:46:56.054Z,47.33
2022-10-09T22:49:22.509Z,47.30
2022-10-09T22:51:50.154Z,47.32
2022-10-09T22:54:16.589Z,47.22
2022-10-09T22:56:44.152Z,47.34
2022-10-09T22:59:11.067Z,47.19
2022-10-09T23:01:38.932Z,47.26
2022-10-09T23:04:05.919Z,47.40
2022-10-09T23:06:32.687Z,47.42
2022-10-09T23:09:03.537Z,47.35
2022-10-09T23:11:29.858Z,47.45
2022-10-09T23:13:57.058Z,47.32
2022-10-09T23:16:23.948Z,47.38
2022-10-09T23:18:50.354Z,47.28
2022-10-09T23:21:18.700Z,47.34
2022-10-09T23:23:46.176Z,47.25
2022-10-09T23:26:14.564Z,47.20
2022-10-09T23:28:41.332Z,47.32
2022-10-09T23:31:08.755Z,47.52
2022-10-09T23:33:35.392Z,47.47
2022-10-09T23:36:01.733Z,47.39
2022-10-09T23:38:28.135Z,47.52
2022-10-09T23:40:54.913Z,47.59
2022-10-09T23:43:22.566Z,47.42
2022-10-09T23:45:49.050Z,47.49
2022-10-09T23:48:15.474Z,47.33
2022-10-09T23:50:41.852Z,47.37
2022-10-09T23:53:08.207Z,47.42
2022-10-09T23:55:34.512Z,47.46
2022-10-09T23:58:00.853Z,47.33
